createdAt,value
2017-08-14T00:00:33.059Z,0
2017-08-14T00:01:34.610Z,0
2017-08-14T00:02:36.099Z,0
2017-08-14T00:03:37.586Z,0
2017-08-14T00:04:39.110Z,0
2017-08-14T00:05:40.651Z,0
2017-08-14T00:06:42.164Z,0
2017-08-14T00:07:43.726Z,0
2017-08-14T00:08:45.242Z,0
2017-08-14T00:09:46.743Z,0
2017-08-14T00:10:48.269Z,0
2017-08-14T00:11:49.793Z,0
2017-08-14T00:12:51.300Z,0
2017-08-14T00:13:52.785Z,0
2017-08-14T00:14:54.312Z,0
2017-08-14T00:15:55.841Z,0
2017-08-14T00:16:57.373Z,0
2017-08-14T00:17:58.872Z,0
2017-08-14T00:19:00.400Z,0
2017-08-14T00:20:02.035Z,0
2017-08-14T00:21:03.575Z,0
2017-08-14T00:22:05.169Z,0
2017-08-14T00:23:06.644Z,0
2017-08-14T00:24:08.126Z,0
2017-08-14T00:25:09.642Z,0
2017-08-14T00:26:11.188Z,0
2017-08-14T00:27:12.654Z,0
2017-08-14T00:28:14.172Z,0
2017-08-14T00:29:15.655Z,0
2017-08-14T00:30:17.323Z,0
2017-08-14T00:31:18.756Z,0
2017-08-14T00:32:20.300Z,0
2017-08-14T00:33:21.826Z,0
2017-08-14T00:34:23.345Z,0
2017-08-14T00:35:24.861Z,0
2017-08-14T00:36:26.330Z,0
2017-08-14T00:37:27.842Z,0
2017-08-14T00:38:29.362Z,0
2017-08-14T00:39:30.895Z,0
2017-08-14T00:40:32.418Z,0
2017-08-14T00:41:33.929Z,0
2017-08-14T00:42:35.387Z,0
2017-08-14T00:43:36.918Z,0
2017-08-14T00:44:38.391Z,0
2017-08-14T00:45:39.864Z,0
2017-08-14T00:46:41.320Z,0
2017-08-14T00:47:42.838Z,0
2017-08-14T00:48:44.360Z,0
2017-08-14T00:49:45.861Z,0
2017-08-14T00:50:47.489Z,0
2017-08-14T00:51:48.929Z,0
2017-08-14T00:52:50.339Z,0
2017-08-14T00:53:51.757Z,0
2017-08-14T00:54:53.186Z,0
2017-08-14T00:55:54.605Z,0
2017-08-14T00:56:56.014Z,0
2017-08-14T00:57:57.563Z,0
2017-08-14T00:58:59.086Z,0
2017-08-14T01:00:00.768Z,0
2017-08-14T01:01:02.312Z,0
2017-08-14T01:02:03.891Z,0
2017-08-14T01:03:05.449Z,0
2017-08-14T01:04:06.972Z,0
2017-08-14T01:05:08.490Z,0
2017-08-14T01:06:10.110Z,0
2017-08-14T01:07:11.647Z,0
2017-08-14T01:08:13.199Z,0
2017-08-14T01:09:14.616Z,0
2017-08-14T01:10:16.112Z,0
2017-08-14T01:11:17.595Z,0
2017-08-14T01:12:19.132Z,0
2017-08-14T01:13:20.637Z,0
2017-08-14T01:14:22.202Z,0
2017-08-14T01:15:23.638Z,0
2017-08-14T01:16:25.132Z,0
2017-08-14T01:17:26.698Z,0
2017-08-14T01:18:28.237Z,0
2017-08-14T01:19:29.739Z,0
2017-08-14T01:20:31.236Z,0
2017-08-14T01:21:32.798Z,0
2017-08-14T01:22:34.327Z,0
2017-08-14T01:23:35.799Z,0
2017-08-14T01:24:37.236Z,0
2017-08-14T01:25:38.761Z,0
2017-08-14T01:26:40.252Z,0
2017-08-14T01:27:41.795Z,0
2017-08-14T01:28:43.265Z,0
2017-08-14T01:29:44.710Z,0
2017-08-14T01:30:46.145Z,0
2017-08-14T01:31:47.585Z,0
2017-08-14T01:32:49.010Z,0
2017-08-14T01:33:50.437Z,0
2017-08-14T01:34:51.878Z,0
2017-08-14T01:35:53.328Z,0
2017-08-14T01:36:54.802Z,0
2017-08-14T01:37:56.230Z,0
2017-08-14T01:38:57.727Z,0
2017-08-14T01:39:59.162Z,0
2017-08-14T01:41:00.596Z,0
2017-08-14T01:42:02.091Z,0
2017-08-14T01:43:03.624Z,0
2017-08-14T01:44:05.136Z,0
2017-08-14T01:45:06.581Z,0
2017-08-14T01:46:08.073Z,0
2017-08-14T01:47:09.485Z,0
2017-08-14T01:48:10.956Z,0
2017-08-14T01:49:12.449Z,0
2017-08-14T01:50:13.910Z,0
2017-08-14T01:51:15.439Z,0
2017-08-14T01:52:16.943Z,0
2017-08-14T01:53:18.499Z,0
2017-08-14T01:54:19.948Z,0
2017-08-14T01:55:21.372Z,0
2017-08-14T01:56:22.834Z,0
2017-08-14T01:57:24.253Z,0
2017-08-14T01:58:25.678Z,0
2017-08-14T01:59:27.115Z,0
2017-08-14T02:00:28.568Z,0
2017-08-14T02:01:29.997Z,0
2017-08-14T02:02:31.485Z,0
2017-08-14T02:03:32.908Z,0
2017-08-14T02:04:34.322Z,0
2017-08-14T02:05:35.752Z,0
2017-08-14T02:06:37.216Z,0
2017-08-14T02:07:38.730Z,0
2017-08-14T02:08:40.202Z,0
2017-08-14T02:09:41.713Z,0
2017-08-14T02:10:43.212Z,0
2017-08-14T02:11:44.683Z,0
2017-08-14T02:12:46.209Z,0
2017-08-14T02:13:47.756Z,0
2017-08-14T02:14:49.300Z,0
2017-08-14T02:15:50.801Z,0
2017-08-14T02:16:52.257Z,0
2017-08-14T02:17:53.707Z,0
2017-08-14T02:18:55.218Z,0
2017-08-14T02:19:56.708Z,0
2017-08-14T02:20:58.270Z,0
2017-08-14T02:21:59.791Z,0
2017-08-14T02:23:01.377Z,0
2017-08-14T02:24:02.919Z,0
2017-08-14T02:25:04.392Z,0
2017-08-14T02:26:05.933Z,0
2017-08-14T02:27:07.463Z,0
2017-08-14T02:28:08.960Z,0
2017-08-14T02:29:10.421Z,0
2017-08-14T02:30:11.940Z,0
2017-08-14T02:31:13.505Z,0
2017-08-14T02:32:14.999Z,0
2017-08-14T02:33:16.478Z,0
2017-08-14T02:34:17.949Z,0
2017-08-14T02:35:19.494Z,0
2017-08-14T02:36:20.997Z,0
2017-08-14T02:37:22.476Z,0
2017-08-14T02:38:23.994Z,0
2017-08-14T02:39:25.499Z,0
2017-08-14T02:40:26.998Z,0
2017-08-14T02:41:28.474Z,0
2017-08-14T02:42:29.953Z,0
2017-08-14T02:43:31.465Z,0
2017-08-14T02:44:32.949Z,0
2017-08-14T02:45:34.514Z,0
2017-08-14T02:46:36.084Z,0
2017-08-14T02:47:37.600Z,0
2017-08-14T02:48:39.134Z,0
2017-08-14T02:49:40.694Z,0
2017-08-14T02:50:42.229Z,0
2017-08-14T02:51:43.734Z,0
2017-08-14T02:52:45.207Z,0
2017-08-14T02:53:46.719Z,0
2017-08-14T02:54:48.154Z,0
2017-08-14T02:55:49.660Z,0
2017-08-14T02:56:51.206Z,0
2017-08-14T02:57:52.683Z,0
2017-08-14T02:58:54.199Z,0
2017-08-14T02:59:55.723Z,0
2017-08-14T03:00:57.224Z,0
2017-08-14T03:01:58.758Z,0
2017-08-14T03:03:00.231Z,0
2017-08-14T03:04:01.739Z,0
2017-08-14T03:05:03.290Z,0
2017-08-14T03:06:04.815Z,0
2017-08-14T03:07:06.315Z,0
2017-08-14T03:08:07.797Z,0
2017-08-14T03:09:09.316Z,0
2017-08-14T03:10:10.897Z,0
2017-08-14T03:11:12.395Z,0
2017-08-14T03:12:13.933Z,0
2017-08-14T03:13:15.441Z,0
2017-08-14T03:14:16.940Z,0
2017-08-14T03:15:18.462Z,0
2017-08-14T03:16:19.990Z,0
2017-08-14T03:17:21.516Z,0
2017-08-14T03:18:23.059Z,0
2017-08-14T03:19:24.628Z,0
2017-08-14T03:20:26.198Z,0
2017-08-14T03:21:27.687Z,0
2017-08-14T03:22:29.223Z,0
2017-08-14T03:23:30.720Z,0
2017-08-14T03:24:32.185Z,0
2017-08-14T03:25:33.679Z,0
2017-08-14T03:26:35.183Z,0
2017-08-14T03:27:36.642Z,0
2017-08-14T03:28:38.171Z,0
2017-08-14T03:29:39.685Z,4
2017-08-14T03:30:41.222Z,4
2017-08-14T03:31:42.737Z,0
2017-08-14T03:32:44.313Z,4
2017-08-14T03:33:45.882Z,4
2017-08-14T03:34:47.418Z,0
2017-08-14T03:35:48.969Z,4
2017-08-14T03:36:50.481Z,4
2017-08-14T03:37:51.974Z,4
2017-08-14T03:38:53.514Z,8
2017-08-14T03:39:55.074Z,8
2017-08-14T03:40:56.545Z,8
2017-08-14T03:41:58.083Z,8
2017-08-14T03:42:59.620Z,12
2017-08-14T03:44:01.123Z,12
2017-08-14T03:45:02.583Z,16
2017-08-14T03:46:04.094Z,16
2017-08-14T03:47:05.555Z,20
2017-08-14T03:48:07.127Z,24
2017-08-14T03:49:08.671Z,24
2017-08-14T03:50:10.182Z,28
2017-08-14T03:51:11.664Z,28
2017-08-14T03:52:13.187Z,36
2017-08-14T03:53:14.693Z,36
2017-08-14T03:54:16.159Z,40
2017-08-14T03:55:17.700Z,44
2017-08-14T03:56:19.188Z,48
2017-08-14T03:57:20.707Z,52
2017-08-14T03:58:22.264Z,60
2017-08-14T03:59:23.799Z,64
2017-08-14T04:00:25.309Z,68
2017-08-14T04:01:26.828Z,76
2017-08-14T04:02:28.314Z,84
2017-08-14T04:03:29.836Z,92
2017-08-14T04:04:31.317Z,100
2017-08-14T04:05:32.831Z,108
2017-08-14T04:06:34.336Z,116
2017-08-14T04:07:35.883Z,124
2017-08-14T04:08:37.349Z,136
2017-08-14T04:09:38.868Z,144
2017-08-14T04:10:40.353Z,152
2017-08-14T04:11:41.905Z,160
2017-08-14T04:12:43.420Z,172
2017-08-14T04:13:44.907Z,184
2017-08-14T04:14:46.450Z,196
2017-08-14T04:15:47.991Z,212
2017-08-14T04:16:49.479Z,224
2017-08-14T04:17:50.972Z,236
2017-08-14T04:18:52.474Z,252
2017-08-14T04:19:54.008Z,260
2017-08-14T04:20:55.514Z,276
2017-08-14T04:21:57.130Z,296
2017-08-14T04:22:58.588Z,316
2017-08-14T04:24:00.109Z,336
2017-08-14T04:25:01.623Z,360
2017-08-14T04:26:03.201Z,384
2017-08-14T04:27:04.718Z,396
2017-08-14T04:28:06.202Z,412
2017-08-14T04:29:07.748Z,420
2017-08-14T04:30:09.264Z,432
2017-08-14T04:31:10.782Z,440
2017-08-14T04:32:12.467Z,448
2017-08-14T04:33:13.994Z,460
2017-08-14T04:34:15.501Z,468
2017-08-14T04:35:17.054Z,492
2017-08-14T04:36:18.595Z,520
2017-08-14T04:37:20.137Z,548
2017-08-14T04:38:21.612Z,576
2017-08-14T04:39:23.127Z,584
2017-08-14T04:40:24.704Z,560
2017-08-14T04:41:26.212Z,548
2017-08-14T04:42:27.738Z,564
2017-08-14T04:43:29.239Z,592
2017-08-14T04:44:30.779Z,604
2017-08-14T04:45:32.306Z,624
2017-08-14T04:46:33.889Z,640
2017-08-14T04:47:35.464Z,664
2017-08-14T04:48:36.982Z,704
2017-08-14T04:49:38.513Z,724
2017-08-14T04:50:40.061Z,752
2017-08-14T04:51:41.568Z,772
2017-08-14T04:52:43.125Z,808
2017-08-14T04:53:44.710Z,824
2017-08-14T04:54:46.284Z,816
2017-08-14T04:55:47.853Z,820
2017-08-14T04:56:49.378Z,824
2017-08-14T04:57:50.891Z,844
2017-08-14T04:58:52.416Z,892
2017-08-14T04:59:54.014Z,960
2017-08-14T05:00:55.565Z,1028
2017-08-14T05:01:57.104Z,1096
2017-08-14T05:02:58.666Z,1104
2017-08-14T05:04:00.267Z,1076
2017-08-14T05:05:01.756Z,1096
2017-08-14T05:06:03.395Z,1156
2017-08-14T05:07:05.008Z,1192
2017-08-14T05:08:06.613Z,1192
2017-08-14T05:09:08.618Z,1188
2017-08-14T05:10:10.152Z,1216
2017-08-14T05:11:11.691Z,1316
2017-08-14T05:12:13.214Z,1392
2017-08-14T05:13:14.791Z,1384
2017-08-14T05:14:16.625Z,1380
2017-08-14T05:15:18.190Z,1352
2017-08-14T05:16:19.690Z,1344
2017-08-14T05:17:21.262Z,1396
2017-08-14T05:18:22.758Z,1412
2017-08-14T05:19:24.349Z,1440
2017-08-14T05:20:25.956Z,1484
2017-08-14T05:21:27.489Z,1504
2017-08-14T05:22:29.041Z,1568
2017-08-14T05:23:30.500Z,1660
2017-08-14T05:24:32.015Z,1684
2017-08-14T05:25:33.547Z,1696
2017-08-14T05:26:35.035Z,1776
2017-08-14T05:27:36.584Z,1888
2017-08-14T05:28:38.114Z,1808
2017-08-14T05:29:39.562Z,1852
2017-08-14T05:30:41.092Z,1968
2017-08-14T05:31:42.624Z,1964
2017-08-14T05:32:44.153Z,1892
2017-08-14T05:33:45.690Z,1864
2017-08-14T05:34:47.214Z,1892
2017-08-14T05:35:48.752Z,1856
2017-08-14T05:36:50.287Z,1932
2017-08-14T05:37:51.855Z,2100
2017-08-14T05:38:53.364Z,2120
2017-08-14T05:39:54.890Z,2224
2017-08-14T05:40:56.444Z,2404
2017-08-14T05:41:57.970Z,2392
2017-08-14T05:42:59.558Z,2312
2017-08-14T05:44:01.080Z,2300
2017-08-14T05:45:02.604Z,2280
2017-08-14T05:46:04.139Z,2308
2017-08-14T05:47:05.692Z,2364
2017-08-14T05:48:07.175Z,2436
2017-08-14T05:49:08.728Z,2476
2017-08-14T05:50:10.292Z,2500
2017-08-14T05:51:11.852Z,2480
2017-08-14T05:52:13.366Z,2480
2017-08-14T05:53:14.941Z,2508
2017-08-14T05:54:16.453Z,2576
2017-08-14T05:55:18.045Z,2676
2017-08-14T05:56:19.535Z,2728
2017-08-14T05:57:21.028Z,2724
2017-08-14T05:58:22.529Z,2752
2017-08-14T05:59:24.028Z,2804
2017-08-14T06:00:25.592Z,2892
2017-08-14T06:01:27.266Z,3036
2017-08-14T06:02:28.804Z,3120
2017-08-14T06:03:30.375Z,3152
2017-08-14T06:04:31.901Z,3272
2017-08-14T06:05:33.431Z,3412
2017-08-14T06:06:34.997Z,3444
2017-08-14T06:07:36.472Z,3464
2017-08-14T06:08:37.984Z,3420
2017-08-14T06:09:39.525Z,3400
2017-08-14T06:10:41.122Z,3452
2017-08-14T06:11:42.708Z,3444
2017-08-14T06:12:44.263Z,3356
2017-08-14T06:13:45.772Z,3296
2017-08-14T06:14:47.405Z,3384
2017-08-14T06:15:48.918Z,3496
2017-08-14T06:16:50.478Z,3524
2017-08-14T06:17:52.039Z,3504
2017-08-14T06:18:53.595Z,3684
2017-08-14T06:19:55.233Z,3884
2017-08-14T06:20:56.725Z,3972
2017-08-14T06:21:58.349Z,3876
2017-08-14T06:22:59.953Z,3832
2017-08-14T06:24:01.495Z,3852
2017-08-14T06:25:03.027Z,3956
2017-08-14T06:26:04.542Z,4072
2017-08-14T06:27:06.068Z,4064
2017-08-14T06:28:07.585Z,4132
2017-08-14T06:29:09.114Z,4244
2017-08-14T06:30:10.698Z,4280
2017-08-14T06:31:12.354Z,4376
2017-08-14T06:32:13.892Z,4404
2017-08-14T06:33:15.429Z,4356
2017-08-14T06:34:16.932Z,4360
2017-08-14T06:35:18.493Z,4312
2017-08-14T06:36:20.023Z,4284
2017-08-14T06:37:21.551Z,4328
2017-08-14T06:38:23.099Z,4460
2017-08-14T06:39:24.646Z,4488
2017-08-14T06:40:26.219Z,4400
2017-08-14T06:41:27.799Z,4536
2017-08-14T06:42:29.354Z,4560
2017-08-14T06:43:30.881Z,4548
2017-08-14T06:44:32.389Z,4656
2017-08-14T06:45:33.972Z,4684
2017-08-14T06:46:35.572Z,4536
2017-08-14T06:47:37.096Z,4632
2017-08-14T06:48:38.758Z,4744
2017-08-14T06:49:40.279Z,4832
2017-08-14T06:50:41.872Z,5108
2017-08-14T06:51:43.427Z,5280
2017-08-14T06:52:44.962Z,5500
2017-08-14T06:53:46.535Z,5592
2017-08-14T06:54:48.097Z,5452
2017-08-14T06:55:49.586Z,5492
2017-08-14T06:56:51.107Z,5640
2017-08-14T06:57:52.610Z,5816
2017-08-14T06:58:54.101Z,5976
2017-08-14T06:59:55.651Z,6028
2017-08-14T07:00:57.169Z,6072
2017-08-14T07:01:58.657Z,5896
2017-08-14T07:03:00.216Z,5900
2017-08-14T07:04:01.774Z,5892
2017-08-14T07:05:03.304Z,6084
2017-08-14T07:06:04.850Z,6232
2017-08-14T07:07:06.406Z,5696
2017-08-14T07:08:07.906Z,5340
2017-08-14T07:09:09.463Z,4956
2017-08-14T07:10:10.994Z,4728
2017-08-14T07:11:12.509Z,4664
2017-08-14T07:12:14.045Z,4568
2017-08-14T07:13:15.579Z,4524
2017-08-14T07:14:17.146Z,4736
2017-08-14T07:15:18.665Z,4776
2017-08-14T07:16:20.223Z,4416
2017-08-14T07:17:21.738Z,4588
2017-08-14T07:18:23.313Z,5592
2017-08-14T07:19:24.816Z,4820
2017-08-14T07:20:26.388Z,5424
2017-08-14T07:21:27.940Z,4240
2017-08-14T07:22:29.473Z,4500
2017-08-14T07:23:30.993Z,4620
2017-08-14T07:24:32.572Z,5344
2017-08-14T07:25:34.120Z,5352
2017-08-14T07:26:35.654Z,5680
2017-08-14T07:27:37.211Z,5980
2017-08-14T07:28:38.764Z,6012
2017-08-14T07:29:40.234Z,6020
2017-08-14T07:30:41.809Z,6048
2017-08-14T07:31:43.250Z,6088
2017-08-14T07:32:44.790Z,6124
2017-08-14T07:33:46.363Z,6136
2017-08-14T07:34:47.930Z,6100
2017-08-14T07:35:49.478Z,6308
2017-08-14T07:36:51.058Z,6368
2017-08-14T07:37:52.582Z,6420
2017-08-14T07:38:54.078Z,6436
2017-08-14T07:39:55.844Z,6480
2017-08-14T07:40:57.398Z,6536
2017-08-14T07:41:58.963Z,6588
2017-08-14T07:43:00.629Z,6652
2017-08-14T07:44:02.147Z,6684
2017-08-14T07:45:03.654Z,6752
2017-08-14T07:46:05.200Z,6776
2017-08-14T07:47:06.759Z,6864
2017-08-14T07:48:08.303Z,6900
2017-08-14T07:49:09.840Z,6996
2017-08-14T07:50:11.382Z,7020
2017-08-14T07:51:12.945Z,7068
2017-08-14T07:52:14.503Z,7056
2017-08-14T07:53:16.010Z,7152
2017-08-14T07:54:17.547Z,7248
2017-08-14T07:55:19.091Z,7232
2017-08-14T07:56:20.636Z,7288
2017-08-14T07:57:22.131Z,7300
2017-08-14T07:58:23.682Z,7364
2017-08-14T07:59:25.237Z,7412
2017-08-14T08:00:26.774Z,7508
2017-08-14T08:01:28.302Z,7548
2017-08-14T08:02:29.861Z,7580
2017-08-14T08:03:31.358Z,7652
2017-08-14T08:04:32.863Z,7676
2017-08-14T08:05:34.375Z,7704
2017-08-14T08:06:35.928Z,7728
2017-08-14T08:07:37.460Z,7744
2017-08-14T08:08:38.963Z,7776
2017-08-14T08:09:40.505Z,7836
2017-08-14T08:10:42.053Z,7900
2017-08-14T08:11:43.618Z,7940
2017-08-14T08:12:45.145Z,8008
2017-08-14T08:13:46.720Z,8048
2017-08-14T08:14:48.270Z,8092
2017-08-14T08:15:49.859Z,8140
2017-08-14T08:16:51.363Z,8204
2017-08-14T08:17:52.861Z,8264
2017-08-14T08:18:54.419Z,8304
2017-08-14T08:19:55.936Z,8348
2017-08-14T08:20:57.488Z,8428
2017-08-14T08:21:59.055Z,8512
2017-08-14T08:23:00.564Z,8592
2017-08-14T08:24:02.269Z,8684
2017-08-14T08:25:03.763Z,8736
2017-08-14T08:26:05.301Z,8788
2017-08-14T08:27:06.916Z,8864
2017-08-14T08:28:08.464Z,8916
2017-08-14T08:29:10.015Z,9012
2017-08-14T08:30:11.598Z,9084
2017-08-14T08:31:13.180Z,9168
2017-08-14T08:32:14.774Z,9244
2017-08-14T08:33:16.298Z,9308
2017-08-14T08:34:17.859Z,9368
2017-08-14T08:35:19.372Z,9460
2017-08-14T08:36:21.022Z,9508
2017-08-14T08:37:22.489Z,9540
2017-08-14T08:38:24.016Z,9604
2017-08-14T08:39:25.591Z,9652
2017-08-14T08:40:27.121Z,9764
2017-08-14T08:41:28.698Z,9808
2017-08-14T08:42:30.208Z,9868
2017-08-14T08:43:31.744Z,9840
2017-08-14T08:44:33.239Z,9948
2017-08-14T08:45:34.772Z,10036
2017-08-14T08:46:36.278Z,10080
2017-08-14T08:47:37.796Z,10132
2017-08-14T08:48:39.508Z,10116
2017-08-14T08:49:41.084Z,10100
2017-08-14T08:50:42.596Z,10216
2017-08-14T08:51:44.122Z,10256
2017-08-14T08:52:45.695Z,10328
2017-08-14T08:53:47.218Z,10324
2017-08-14T08:54:48.738Z,10396
2017-08-14T08:55:50.342Z,10464
2017-08-14T08:56:51.887Z,10440
2017-08-14T08:57:53.395Z,10432
2017-08-14T08:58:54.921Z,10448
2017-08-14T08:59:56.505Z,10432
2017-08-14T09:00:58.079Z,10540
2017-08-14T09:01:59.628Z,10384
2017-08-14T09:03:01.162Z,10372
2017-08-14T09:04:02.705Z,10428
2017-08-14T09:05:04.220Z,10484
2017-08-14T09:06:05.789Z,10500
2017-08-14T09:07:07.312Z,10472
2017-08-14T09:08:08.827Z,10416
2017-08-14T09:09:10.414Z,10360
2017-08-14T09:10:11.976Z,10356
2017-08-14T09:11:13.463Z,10396
2017-08-14T09:12:15.093Z,10284
2017-08-14T09:13:16.668Z,10360
2017-08-14T09:14:18.190Z,10416
2017-08-14T09:15:19.776Z,10472
2017-08-14T09:16:21.264Z,10440
2017-08-14T09:17:22.779Z,10420
2017-08-14T09:18:24.314Z,10424
2017-08-14T09:19:25.841Z,10472
2017-08-14T09:20:27.394Z,10520
2017-08-14T09:21:28.933Z,10556
2017-08-14T09:22:30.480Z,10576
2017-08-14T09:23:32.059Z,10588
2017-08-14T09:24:33.587Z,10608
2017-08-14T09:25:35.162Z,10688
2017-08-14T09:26:36.655Z,10772
2017-08-14T09:27:38.277Z,10828
2017-08-14T09:28:39.824Z,10892
2017-08-14T09:29:41.337Z,10916
2017-08-14T09:30:42.899Z,10996
2017-08-14T09:31:44.434Z,11024
2017-08-14T09:32:46.007Z,11100
2017-08-14T09:33:47.515Z,11192
2017-08-14T09:34:49.152Z,11184
2017-08-14T09:35:50.706Z,11272
2017-08-14T09:36:52.291Z,11380
2017-08-14T09:37:53.825Z,11468
2017-08-14T09:38:55.360Z,11560
2017-08-14T09:39:56.914Z,11604
2017-08-14T09:40:58.513Z,11692
2017-08-14T09:42:00.110Z,11828
2017-08-14T09:43:01.681Z,11916
2017-08-14T09:44:03.271Z,11920
2017-08-14T09:45:04.828Z,11988
2017-08-14T09:46:06.383Z,12120
2017-08-14T09:47:07.914Z,12184
2017-08-14T09:48:09.498Z,12244
2017-08-14T09:49:11.018Z,12340
2017-08-14T09:50:12.564Z,12436
2017-08-14T09:51:14.083Z,12552
2017-08-14T09:52:15.636Z,12688
2017-08-14T09:53:17.115Z,12776
2017-08-14T09:54:18.639Z,12896
2017-08-14T09:55:20.186Z,13032
2017-08-14T09:56:21.765Z,13212
2017-08-14T09:57:23.332Z,13276
2017-08-14T09:58:24.878Z,13312
2017-08-14T09:59:26.507Z,13392
2017-08-14T10:00:28.124Z,13512
2017-08-14T10:01:29.649Z,13524
2017-08-14T10:02:31.246Z,13524
2017-08-14T10:03:32.769Z,13656
2017-08-14T10:04:34.323Z,13704
2017-08-14T10:05:35.884Z,13648
2017-08-14T10:06:37.449Z,13632
2017-08-14T10:07:38.979Z,13612
2017-08-14T10:08:40.566Z,13636
2017-08-14T10:09:42.087Z,13652
2017-08-14T10:10:43.634Z,13668
2017-08-14T10:11:45.275Z,13628
2017-08-14T10:12:46.769Z,13472
2017-08-14T10:13:48.360Z,13400
2017-08-14T10:14:49.921Z,13356
2017-08-14T10:15:51.551Z,13284
2017-08-14T10:16:53.091Z,13240
2017-08-14T10:17:54.713Z,13144
2017-08-14T10:18:56.236Z,13028
2017-08-14T10:19:57.839Z,12960
2017-08-14T10:20:59.351Z,12916
2017-08-14T10:22:00.913Z,12868
2017-08-14T10:23:02.441Z,12768
2017-08-14T10:24:03.978Z,12636
2017-08-14T10:25:05.519Z,12540
2017-08-14T10:26:07.099Z,12452
2017-08-14T10:27:08.633Z,12360
2017-08-14T10:28:10.167Z,12312
2017-08-14T10:29:11.684Z,12248
2017-08-14T10:30:13.227Z,12280
2017-08-14T10:31:14.754Z,12308
2017-08-14T10:32:16.282Z,12272
2017-08-14T10:33:17.895Z,12184
2017-08-14T10:34:19.423Z,12088
2017-08-14T10:35:20.977Z,12092
2017-08-14T10:36:22.503Z,12124
2017-08-14T10:37:24.034Z,12112
2017-08-14T10:38:25.555Z,12144
2017-08-14T10:39:27.083Z,12196
2017-08-14T10:40:28.675Z,12268
2017-08-14T10:41:30.198Z,12372
2017-08-14T10:42:31.778Z,12452
2017-08-14T10:43:33.337Z,12588
2017-08-14T10:44:34.927Z,12596
2017-08-14T10:45:36.454Z,12644
2017-08-14T10:46:38.052Z,12884
2017-08-14T10:47:39.638Z,13064
2017-08-14T10:48:41.254Z,13080
2017-08-14T10:49:42.760Z,13092
2017-08-14T10:50:44.318Z,13152
2017-08-14T10:51:45.789Z,13216
2017-08-14T10:52:47.402Z,13432
2017-08-14T10:53:49.000Z,13592
2017-08-14T10:54:50.608Z,13840
2017-08-14T10:55:52.167Z,14060
2017-08-14T10:56:53.779Z,14308
2017-08-14T10:57:55.282Z,14704
2017-08-14T10:58:56.887Z,15052
2017-08-14T10:59:58.405Z,15520
2017-08-14T11:00:59.939Z,15936
2017-08-14T11:02:01.473Z,16384
2017-08-14T11:03:03.021Z,16864
2017-08-14T11:04:04.554Z,17664
2017-08-14T11:05:06.053Z,18528
2017-08-14T11:06:07.610Z,18784
2017-08-14T11:07:09.147Z,19296
2017-08-14T11:08:10.663Z,19616
2017-08-14T11:09:12.155Z,20256
2017-08-14T11:10:13.718Z,31232
2017-08-14T11:11:15.370Z,48032
2017-08-14T11:12:16.959Z,51072
2017-08-14T11:13:18.472Z,51520
2017-08-14T11:14:20.054Z,49248
2017-08-14T11:15:21.583Z,50432
2017-08-14T11:16:23.121Z,50176
2017-08-14T11:17:24.701Z,52864
2017-08-14T11:18:26.236Z,53952
2017-08-14T11:19:27.777Z,54432
2017-08-14T11:20:29.321Z,54752
2017-08-14T11:21:30.826Z,56384
2017-08-14T11:22:32.366Z,55552
2017-08-14T11:23:33.882Z,55328
2017-08-14T11:24:35.463Z,56832
2017-08-14T11:25:36.918Z,55264
2017-08-14T11:26:38.492Z,55232
2017-08-14T11:27:40.035Z,57344
2017-08-14T11:28:41.668Z,59520
2017-08-14T11:29:43.202Z,58240
2017-08-14T11:30:44.759Z,58624
2017-08-14T11:31:46.371Z,56896
2017-08-14T11:34:02.167Z,56864
2017-08-14T11:35:03.741Z,54912
2017-08-14T11:36:05.259Z,53920
2017-08-14T11:37:06.840Z,55904
2017-08-14T11:38:08.406Z,59392
2017-08-14T11:39:09.993Z,60608
2017-08-14T11:40:11.595Z,61984
2017-08-14T11:41:13.242Z,60800
2017-08-14T11:42:14.727Z,58688
2017-08-14T11:43:16.264Z,62144
2017-08-14T11:44:17.801Z,62848
2017-08-14T11:45:19.459Z,63008
2017-08-14T11:46:21.022Z,62112
2017-08-14T11:47:22.586Z,63456
2017-08-14T11:48:24.118Z,64416
2017-08-14T11:49:25.717Z,62720
2017-08-14T11:50:27.280Z,59648
2017-08-14T11:51:28.891Z,60416
2017-08-14T11:52:30.424Z,62368
2017-08-14T11:53:32.046Z,67744
2017-08-14T11:54:34.197Z,67136
2017-08-14T11:55:35.760Z,63872
2017-08-14T11:56:37.400Z,63808
2017-08-14T11:57:38.988Z,64448
2017-08-14T11:58:40.628Z,65568
2017-08-14T11:59:42.158Z,67040
2017-08-14T12:00:43.735Z,65216
2017-08-14T12:01:45.374Z,65472
2017-08-14T12:02:47.053Z,68768
2017-08-14T12:03:48.675Z,68992
2017-08-14T12:04:50.264Z,66048
2017-08-14T12:05:51.835Z,59488
2017-08-14T12:06:53.405Z,56544
2017-08-14T12:07:54.985Z,61856
2017-08-14T12:08:56.588Z,67904
2017-08-14T12:09:58.226Z,68416
2017-08-14T12:10:59.787Z,68896
2017-08-14T12:12:01.416Z,66880
2017-08-14T12:13:02.980Z,66400
2017-08-14T12:14:04.566Z,64768
2017-08-14T12:15:06.132Z,64256
2017-08-14T12:16:07.638Z,68128
2017-08-14T12:17:09.172Z,71904
2017-08-14T12:18:10.718Z,70816
2017-08-14T12:19:12.234Z,69504
2017-08-14T12:20:13.824Z,69536
2017-08-14T12:21:15.467Z,70784
2017-08-14T12:22:17.001Z,70016
2017-08-14T12:23:18.544Z,71360
2017-08-14T12:24:20.118Z,69568
2017-08-14T12:25:21.678Z,68352
2017-08-14T12:26:23.245Z,70400
2017-08-14T12:27:24.798Z,71200
2017-08-14T12:28:26.451Z,71616
2017-08-14T12:29:27.960Z,71904
2017-08-14T12:30:29.533Z,71072
2017-08-14T12:31:31.012Z,71680
2017-08-14T12:32:32.537Z,72160
2017-08-14T12:33:34.147Z,72992
2017-08-14T12:34:35.747Z,70464
2017-08-14T12:35:37.346Z,68160
2017-08-14T12:36:38.857Z,69248
2017-08-14T12:37:40.387Z,71584
2017-08-14T12:38:41.961Z,74816
2017-08-14T12:39:43.530Z,74080
2017-08-14T12:40:45.089Z,72832
2017-08-14T12:41:46.590Z,72800
2017-08-14T12:42:48.103Z,71744
2017-08-14T12:43:49.670Z,73728
2017-08-14T12:44:51.217Z,75520
2017-08-14T12:45:52.762Z,73280
2017-08-14T12:46:54.309Z,75488
2017-08-14T12:47:55.816Z,76736
2017-08-14T12:48:57.408Z,64224
2017-08-14T12:49:59.006Z,38240
2017-08-14T12:51:00.578Z,26304
2017-08-14T12:52:02.109Z,25152
2017-08-14T12:53:03.673Z,24640
2017-08-14T12:54:05.209Z,24320
2017-08-14T12:55:06.733Z,24224
2017-08-14T12:56:08.264Z,24704
2017-08-14T12:57:09.707Z,29536
2017-08-14T12:58:11.138Z,53568
2017-08-14T12:59:12.586Z,73728
2017-08-14T13:00:14.045Z,75712
2017-08-14T13:01:15.519Z,74144
2017-08-14T13:02:17.030Z,75328
2017-08-14T13:03:18.553Z,74784
2017-08-14T13:04:20.027Z,76256
2017-08-14T13:05:21.481Z,75872
2017-08-14T13:06:22.963Z,76704
2017-08-14T13:07:24.400Z,77728
2017-08-14T13:08:25.866Z,77600
2017-08-14T13:09:27.361Z,75520
2017-08-14T13:10:28.862Z,72224
2017-08-14T13:11:30.303Z,72224
2017-08-14T13:12:31.752Z,72768
2017-08-14T13:13:33.213Z,73568
2017-08-14T13:14:34.657Z,75232
2017-08-14T13:15:36.094Z,71744
2017-08-14T13:16:37.553Z,75040
2017-08-14T13:17:38.995Z,79264
2017-08-14T13:18:40.462Z,79488
2017-08-14T13:19:41.939Z,78400
2017-08-14T13:20:43.389Z,78560
2017-08-14T13:21:44.881Z,78912
2017-08-14T13:22:46.421Z,80448
2017-08-14T13:23:47.933Z,77824
2017-08-14T13:24:49.485Z,72064
2017-08-14T13:25:51.018Z,69728
2017-08-14T13:26:52.585Z,66464
2017-08-14T13:27:54.212Z,58912
2017-08-14T13:28:55.748Z,65088
2017-08-14T13:29:57.279Z,67648
2017-08-14T13:30:58.820Z,67360
2017-08-14T13:32:00.326Z,66624
2017-08-14T13:33:01.977Z,71520
2017-08-14T13:34:03.525Z,79520
2017-08-14T13:35:05.129Z,80768
2017-08-14T13:36:06.689Z,82336
2017-08-14T13:37:08.261Z,84384
2017-08-14T13:38:09.903Z,82528
2017-08-14T13:39:11.450Z,81312
2017-08-14T13:40:13.083Z,81600
2017-08-14T13:41:14.542Z,81856
2017-08-14T13:42:16.046Z,81920
2017-08-14T13:43:17.504Z,80576
2017-08-14T13:44:19.056Z,79232
2017-08-14T13:45:20.496Z,74080
2017-08-14T13:46:22.064Z,75392
2017-08-14T13:47:23.587Z,78432
2017-08-14T13:48:25.062Z,80384
2017-08-14T13:49:26.611Z,79520
2017-08-14T13:50:28.124Z,81280
2017-08-14T13:51:29.661Z,76992
2017-08-14T13:52:31.202Z,76128
2017-08-14T13:53:32.729Z,77248
2017-08-14T13:54:34.256Z,69344
2017-08-14T13:55:35.782Z,66720